createdAt,value
2018-01-02T00:00:05.160Z,0
2018-01-02T00:05:03.106Z,0
2018-01-02T00:10:02.622Z,0
2018-01-02T00:15:03.116Z,0
2018-01-02T00:20:02.685Z,0
2018-01-02T00:25:03.312Z,0
2018-01-02T00:30:02.900Z,0
2018-01-02T00:35:03.407Z,0
2018-01-02T00:40:02.908Z,0
2018-01-02T00:45:02.595Z,0
2018-01-02T00:50:03.099Z,0
2018-01-02T00:55:02.640Z,0
2018-01-02T01:00:03.041Z,0
2018-01-02T01:05:02.721Z,0
2018-01-02T01:10:03.254Z,0
2018-01-02T01:15:02.730Z,0
2018-01-02T01:20:03.390Z,0
2018-01-02T01:25:02.823Z,0
2018-01-02T01:30:03.268Z,0
2018-01-02T01:35:02.826Z,0
2018-01-02T01:40:03.363Z,0
2018-01-02T01:45:02.915Z,0
2018-01-02T01:50:03.410Z,0
2018-01-02T01:55:02.856Z,0
2018-01-02T02:00:03.279Z,0
2018-01-02T02:05:02.777Z,0
2018-01-02T02:10:03.344Z,0
2018-01-02T02:15:02.773Z,0
2018-01-02T02:20:03.446Z,0
2018-01-02T02:25:03.044Z,0
2018-01-02T02:30:02.504Z,0
2018-01-02T02:35:03.200Z,0
2018-01-02T02:40:02.747Z,0
2018-01-02T02:45:03.249Z,0
2018-01-02T02:50:02.704Z,0
2018-01-02T02:55:03.129Z,0
2018-01-02T03:00:02.678Z,0
2018-01-02T03:05:03.084Z,0
2018-01-02T03:10:02.759Z,0
2018-01-02T03:15:03.230Z,0
2018-01-02T03:20:02.817Z,0
2018-01-02T03:25:03.355Z,0
2018-01-02T03:30:02.806Z,0
2018-01-02T03:35:03.395Z,0
2018-01-02T03:40:02.886Z,0
2018-01-02T03:45:03.337Z,0
2018-01-02T03:50:02.843Z,0
2018-01-02T03:55:03.452Z,0
2018-01-02T04:00:03.055Z,0
2018-01-02T04:05:02.543Z,0
2018-01-02T04:10:03.210Z,0
2018-01-02T04:15:02.641Z,0
2018-01-02T04:20:03.087Z,0
2018-01-02T04:25:02.492Z,0
2018-01-02T04:30:03.101Z,0
2018-01-02T04:35:02.687Z,0
2018-01-02T04:40:03.327Z,0
2018-01-02T04:45:02.852Z,0
2018-01-02T04:50:03.286Z,0
2018-01-02T04:55:02.676Z,0
2018-01-02T05:00:03.202Z,0
2018-01-02T05:05:02.662Z,0
2018-01-02T05:10:03.309Z,0
2018-01-02T05:15:02.707Z,0
2018-01-02T05:20:03.276Z,0
2018-01-02T05:25:02.769Z,0
2018-01-02T05:30:03.033Z,0
2018-01-02T05:35:02.457Z,0
2018-01-02T05:40:03.013Z,0
2018-01-02T05:45:03.417Z,0
2018-01-02T05:50:03.030Z,0
2018-01-02T05:55:02.496Z,0
2018-01-02T06:00:03.010Z,0
2018-01-02T06:10:03.104Z,0
2018-01-02T06:15:02.597Z,0
2018-01-02T06:20:03.236Z,0
2018-01-02T06:25:02.721Z,0
2018-01-02T06:30:03.198Z,0
2018-01-02T06:35:02.683Z,0
2018-01-02T06:40:03.176Z,0
2018-01-02T06:45:02.790Z,0
2018-01-02T06:50:03.342Z,0
2018-01-02T06:55:02.801Z,0
2018-01-02T07:00:03.411Z,0
2018-01-02T07:05:02.993Z,1
2018-01-02T07:10:02.472Z,3
2018-01-02T07:15:02.969Z,3
2018-01-02T07:20:03.453Z,8
2018-01-02T07:25:02.884Z,23
2018-01-02T07:30:02.437Z,26
2018-01-02T07:35:02.993Z,41
2018-01-02T07:40:02.485Z,57
2018-01-02T07:45:02.977Z,67
2018-01-02T07:50:02.549Z,67
2018-01-02T07:55:03.112Z,69
2018-01-02T08:00:02.678Z,75
2018-01-02T08:05:03.356Z,162
2018-01-02T08:10:03.012Z,164
2018-01-02T08:15:02.658Z,147
2018-01-02T08:20:03.284Z,310
2018-01-02T08:25:02.848Z,305
2018-01-02T08:30:03.396Z,566
2018-01-02T08:35:03.089Z,677
2018-01-02T08:40:02.736Z,681
2018-01-02T08:45:03.314Z,758
2018-01-02T08:50:02.850Z,889
2018-01-02T08:55:03.406Z,834
2018-01-02T09:00:02.925Z,916
2018-01-02T09:05:02.585Z,916
2018-01-02T09:10:03.284Z,1000
2018-01-02T09:15:02.801Z,1000
2018-01-02T09:20:02.527Z,1000
2018-01-02T09:25:03.033Z,1000
2018-01-02T09:30:02.553Z,1000
2018-01-02T09:35:03.185Z,1000
2018-01-02T09:40:02.715Z,3000
2018-01-02T09:45:03.386Z,3000
2018-01-02T09:50:03.054Z,3000
2018-01-02T09:55:02.666Z,3000
2018-01-02T10:00:03.137Z,2000
2018-01-02T10:05:02.625Z,2000
2018-01-02T10:10:03.153Z,1000
2018-01-02T10:15:02.783Z,1000
2018-01-02T10:20:03.447Z,2000
2018-01-02T10:25:02.929Z,5000
2018-01-02T10:30:02.569Z,3000
2018-01-02T10:35:03.069Z,2000
2018-01-02T10:40:02.894Z,1000
2018-01-02T10:45:02.511Z,1000
2018-01-02T10:50:03.151Z,2000
2018-01-02T10:55:02.668Z,1000
2018-01-02T11:00:03.240Z,1000
2018-01-02T11:05:02.779Z,1000
2018-01-02T11:10:02.466Z,1000
2018-01-02T11:15:03.143Z,2000
2018-01-02T11:20:02.637Z,992
2018-01-02T11:25:03.288Z,1000
2018-01-02T11:30:02.791Z,1000
2018-01-02T11:35:03.277Z,2000
2018-01-02T11:40:02.922Z,1000
2018-01-02T11:45:03.459Z,1000
2018-01-02T11:50:03.052Z,2000
2018-01-02T11:55:02.692Z,2000
2018-01-02T12:00:03.273Z,3000
2018-01-02T12:05:02.708Z,5000
2018-01-02T12:10:03.296Z,4000
2018-01-02T12:15:03.045Z,2000
2018-01-02T12:20:02.684Z,2000
2018-01-02T12:25:03.319Z,2000
2018-01-02T12:30:02.751Z,1000
2018-01-02T12:35:03.424Z,1000
2018-01-02T12:40:03.097Z,1000
2018-01-02T12:45:02.578Z,1000
2018-01-02T12:50:03.251Z,1000
2018-01-02T12:55:02.730Z,1000
2018-01-02T13:00:03.345Z,1000
2018-01-02T13:05:02.880Z,1000
2018-01-02T13:10:02.860Z,2000
2018-01-02T13:15:03.375Z,2000
2018-01-02T13:20:03.001Z,2000
2018-01-02T13:25:02.473Z,1000
2018-01-02T13:30:03.066Z,1000
2018-01-02T13:35:02.620Z,1000
2018-01-02T13:40:03.194Z,1000
2018-01-02T13:45:02.841Z,990
2018-01-02T13:50:03.343Z,1000
2018-01-02T13:55:02.800Z,1000
2018-01-02T14:00:03.279Z,1000
2018-01-02T14:05:02.886Z,1000
2018-01-02T14:10:02.648Z,1000
2018-01-02T14:15:03.333Z,994
2018-01-02T14:20:02.758Z,776
2018-01-02T14:25:03.225Z,776
2018-01-02T14:30:02.810Z,734
2018-01-02T14:35:02.513Z,681
2018-01-02T14:40:03.216Z,657
2018-01-02T14:45:02.717Z,643
2018-01-02T14:50:03.416Z,582
2018-01-02T14:55:02.900Z,469
2018-01-02T15:00:02.606Z,486
2018-01-02T15:05:03.167Z,352
2018-01-02T15:10:02.718Z,261
2018-01-02T15:15:03.368Z,125
2018-01-02T15:20:02.872Z,85
2018-01-02T15:25:02.511Z,63
2018-01-02T15:30:02.943Z,61
2018-01-02T15:35:02.572Z,57
2018-01-02T15:40:03.054Z,44
2018-01-02T15:45:02.746Z,34
2018-01-02T15:50:03.205Z,14
2018-01-02T15:55:02.694Z,10
2018-01-02T16:00:03.213Z,8
2018-01-02T16:05:02.803Z,3
2018-01-02T16:10:02.581Z,1
2018-01-02T16:15:03.275Z,1
2018-01-02T16:20:02.827Z,0
2018-01-02T16:25:03.313Z,0
2018-01-02T16:30:02.880Z,0
2018-01-02T16:35:03.440Z,0
2018-01-02T16:40:03.345Z,0
2018-01-02T16:45:02.969Z,0
2018-01-02T16:50:02.543Z,0
2018-01-02T16:55:03.104Z,0
2018-01-02T17:00:02.936Z,0
2018-01-02T17:05:02.753Z,0
2018-01-02T17:10:02.737Z,0
2018-01-02T17:15:03.281Z,0
2018-01-02T17:20:03.084Z,0
2018-01-02T17:25:02.956Z,0
2018-01-02T17:30:02.697Z,0
2018-01-02T17:35:02.554Z,0
2018-01-02T17:40:03.128Z,0
2018-01-02T17:45:02.936Z,0
2018-01-02T17:50:02.597Z,0
2018-01-02T17:55:02.524Z,0
2018-01-02T18:00:03.051Z,0
2018-01-02T18:05:02.846Z,0
2018-01-02T18:10:02.611Z,0
2018-01-02T18:15:03.438Z,0
2018-01-02T18:20:03.395Z,0
2018-01-02T18:25:03.025Z,0
2018-01-02T18:30:02.711Z,0
2018-01-02T18:35:03.289Z,0
2018-01-02T18:40:03.032Z,0
2018-01-02T18:45:02.850Z,0
2018-01-02T18:50:02.438Z,0
2018-01-02T18:55:03.347Z,0
2018-01-02T19:00:02.976Z,0
2018-01-02T19:05:02.864Z,0
2018-01-02T19:10:03.338Z,0
2018-01-02T19:15:02.961Z,0
2018-01-02T19:20:02.492Z,0
2018-01-02T19:25:03.225Z,0
2018-01-02T19:30:02.807Z,0
2018-01-02T19:35:03.412Z,0
2018-01-02T19:40:03.144Z,0
2018-01-02T19:45:02.911Z,0
2018-01-02T19:50:02.562Z,0
2018-01-02T19:55:03.377Z,0
2018-01-02T20:00:03.148Z,0
2018-01-02T20:05:02.908Z,0
2018-01-02T20:10:03.000Z,0
2018-01-02T20:15:03.061Z,0
2018-01-02T20:20:02.708Z,0
2018-01-02T20:25:03.337Z,0
2018-01-02T20:30:03.255Z,0
2018-01-02T20:35:02.870Z,0
2018-01-02T20:40:02.620Z,0
2018-01-02T20:45:03.207Z,0
2018-01-02T20:50:02.947Z,0
2018-01-02T20:55:02.575Z,0
2018-01-02T21:00:03.164Z,0
2018-01-02T21:05:02.870Z,0
2018-01-02T21:10:03.466Z,0
2018-01-02T21:15:03.142Z,0
2018-01-02T21:20:02.897Z,0
2018-01-02T21:25:02.484Z,0
2018-01-02T21:30:03.056Z,0
2018-01-02T21:35:02.778Z,0
2018-01-02T21:40:03.434Z,0
2018-01-02T21:45:03.168Z,0
2018-01-02T21:50:02.677Z,0
2018-01-02T21:55:03.373Z,0
2018-01-02T22:00:02.961Z,0
2018-01-02T22:05:02.624Z,0
2018-01-02T22:10:03.265Z,0
2018-01-02T22:15:02.811Z,0
2018-01-02T22:20:02.489Z,0
2018-01-02T22:25:03.076Z,0
2018-01-02T22:30:02.702Z,0
2018-01-02T22:35:03.329Z,0
2018-01-02T22:40:02.844Z,0
2018-01-02T22:45:03.434Z,0
2018-01-02T22:50:02.838Z,0
2018-01-02T22:55:03.739Z,0
2018-01-02T23:00:03.244Z,0
2018-01-02T23:05:02.835Z,0
2018-01-02T23:10:02.570Z,0
2018-01-02T23:15:03.514Z,0
2018-01-02T23:20:03.416Z,0
2018-01-02T23:25:02.927Z,0
2018-01-02T23:30:02.498Z,0
2018-01-02T23:35:03.179Z,0
2018-01-02T23:40:02.849Z,0
2018-01-02T23:45:02.462Z,0
2018-01-02T23:50:03.122Z,0
2018-01-02T23:55:02.642Z,0
